createdAt,value
2019-03-22T00:00:26.352Z,7.53
2019-03-22T00:02:53.666Z,7.49
2019-03-22T00:05:21.000Z,7.35
2019-03-22T00:07:48.763Z,7.22
2019-03-22T00:10:16.101Z,7.08
2019-03-22T00:12:44.336Z,6.98
2019-03-22T00:15:11.612Z,7.17
2019-03-22T00:17:39.007Z,7.13
2019-03-22T00:20:06.319Z,7.16
2019-03-22T00:22:33.582Z,7.10
2019-03-22T00:25:02.679Z,7.15
2019-03-22T00:27:30.057Z,7.28
2019-03-22T00:29:57.470Z,7.15
2019-03-22T00:32:24.716Z,7.10
2019-03-22T00:34:51.980Z,7.11
2019-03-22T00:37:21.850Z,7.10
2019-03-22T00:39:49.163Z,7.04
2019-03-22T00:42:16.492Z,7.05
2019-03-22T00:44:44.126Z,6.81
2019-03-22T00:47:11.421Z,6.79
2019-03-22T00:49:43.145Z,6.58
2019-03-22T00:52:10.435Z,6.55
2019-03-22T00:54:37.723Z,6.57
2019-03-22T00:57:05.453Z,6.61
2019-03-22T00:59:32.824Z,6.61
2019-03-22T01:02:00.166Z,6.43
2019-03-22T01:04:27.512Z,6.34
2019-03-22T01:06:54.785Z,6.34
2019-03-22T01:09:22.107Z,6.29
2019-03-22T01:11:49.382Z,6.29
2019-03-22T01:14:16.758Z,6.34
2019-03-22T01:16:44.156Z,6.32
2019-03-22T01:19:14.176Z,6.31
2019-03-22T01:21:41.487Z,6.31
2019-03-22T01:24:09.096Z,6.36
2019-03-22T01:26:36.480Z,6.19
2019-03-22T01:29:04.312Z,6.19
2019-03-22T01:31:31.743Z,6.08
2019-03-22T01:33:59.021Z,6.11
2019-03-22T01:36:26.323Z,6.21
2019-03-22T01:38:53.616Z,6.22
2019-03-22T01:41:21.328Z,6.07
2019-03-22T01:43:48.860Z,5.91
2019-03-22T01:46:16.240Z,6.07
2019-03-22T01:48:43.517Z,6.03
2019-03-22T01:51:10.913Z,5.86
2019-03-22T01:53:38.324Z,5.81
2019-03-22T01:56:05.569Z,5.81
2019-03-22T01:58:32.904Z,5.83
2019-03-22T02:01:03.319Z,5.77
2019-03-22T02:03:30.611Z,5.77
2019-03-22T02:05:57.948Z,5.79
2019-03-22T02:08:25.249Z,5.79
2019-03-22T02:10:52.947Z,5.88
2019-03-22T02:13:21.899Z,5.65
2019-03-22T02:15:49.436Z,5.72
2019-03-22T02:18:16.994Z,5.72
2019-03-22T02:20:44.303Z,5.70
2019-03-22T02:23:11.686Z,5.60
2019-03-22T02:25:38.983Z,5.48
2019-03-22T02:28:06.695Z,5.51
2019-03-22T02:30:34.348Z,5.52
2019-03-22T02:33:01.640Z,5.57
2019-03-22T02:35:29.800Z,5.55
2019-03-22T02:37:57.382Z,5.55
2019-03-22T02:40:24.666Z,5.38
2019-03-22T02:42:53.868Z,5.38
2019-03-22T02:45:27.335Z,5.46
2019-03-22T02:47:54.767Z,5.47
2019-03-22T02:50:22.378Z,5.38
2019-03-22T02:52:49.674Z,5.40
2019-03-22T02:55:16.920Z,5.40
2019-03-22T02:57:44.349Z,5.41
2019-03-22T03:00:11.750Z,5.41
2019-03-22T03:02:39.131Z,5.42
2019-03-22T03:05:06.732Z,5.39
2019-03-22T03:07:34.475Z,5.39
2019-03-22T03:10:01.945Z,5.51
2019-03-22T03:12:30.243Z,5.46
2019-03-22T03:14:57.744Z,5.45
2019-03-22T03:17:27.063Z,5.45
2019-03-22T03:19:54.443Z,5.37
2019-03-22T03:22:24.386Z,5.41
2019-03-22T03:24:54.007Z,5.09
2019-03-22T03:27:21.375Z,5.14
2019-03-22T03:29:48.601Z,5.12
2019-03-22T03:32:15.895Z,5.19
2019-03-22T03:34:43.133Z,5.21
2019-03-22T03:37:10.413Z,5.06
2019-03-22T03:39:38.103Z,5.06
2019-03-22T03:42:05.430Z,5.00
2019-03-22T03:44:32.808Z,4.99
2019-03-22T03:47:00.627Z,5.11
2019-03-22T03:49:27.909Z,5.11
2019-03-22T03:51:55.269Z,5.08
2019-03-22T03:54:22.546Z,5.11
2019-03-22T03:56:49.815Z,5.03
2019-03-22T03:59:17.110Z,4.91
2019-03-22T04:01:44.385Z,4.91
2019-03-22T04:04:11.812Z,4.99
2019-03-22T04:06:39.119Z,4.99
2019-03-22T04:09:07.758Z,5.04
2019-03-22T04:11:35.063Z,4.95
2019-03-22T04:14:02.465Z,4.94
2019-03-22T04:16:29.737Z,5.01
2019-03-22T04:18:57.001Z,4.96
2019-03-22T04:21:24.637Z,4.93
2019-03-22T04:23:51.916Z,4.91
2019-03-22T04:26:19.214Z,4.86
2019-03-22T04:29:06.206Z,4.78
2019-03-22T04:31:21.245Z,4.64
2019-03-22T04:33:48.545Z,4.64
2019-03-22T04:36:15.870Z,4.63
2019-03-22T04:38:43.156Z,4.60
2019-03-22T04:41:10.422Z,4.63
2019-03-22T04:43:37.701Z,4.63
2019-03-22T04:46:05.025Z,4.52
2019-03-22T04:48:33.428Z,4.52
2019-03-22T04:51:00.721Z,4.56
2019-03-22T04:53:28.820Z,4.41
2019-03-22T04:55:56.913Z,4.49
2019-03-22T04:58:24.348Z,4.50
2019-03-22T05:00:52.112Z,4.58
2019-03-22T05:03:19.423Z,4.57
2019-03-22T05:05:46.921Z,4.58
2019-03-22T05:08:16.942Z,4.60
2019-03-22T05:10:44.264Z,4.63
2019-03-22T05:13:11.561Z,4.59
2019-03-22T05:15:40.547Z,4.53
2019-03-22T05:18:07.887Z,4.58
2019-03-22T05:20:37.102Z,4.71
2019-03-22T05:23:04.511Z,4.49
2019-03-22T05:25:31.900Z,4.46
2019-03-22T05:27:59.523Z,4.51
2019-03-22T05:31:04.105Z,4.46
2019-03-22T05:33:31.379Z,4.38
2019-03-22T05:35:59.049Z,4.55
2019-03-22T05:38:26.763Z,4.49
2019-03-22T05:40:57.231Z,4.40
2019-03-22T05:43:24.485Z,4.38
2019-03-22T05:45:51.747Z,4.44
2019-03-22T05:48:19.043Z,4.37
2019-03-22T05:50:46.335Z,4.30
2019-03-22T05:53:13.634Z,4.44
2019-03-22T05:55:41.521Z,4.50
2019-03-22T05:58:08.785Z,4.41
2019-03-22T06:00:36.082Z,4.41
2019-03-22T06:03:04.614Z,4.45
2019-03-22T06:05:31.999Z,4.38
2019-03-22T06:07:59.289Z,4.48
2019-03-22T06:10:26.784Z,4.38
2019-03-22T06:12:54.167Z,4.38
2019-03-22T06:15:21.471Z,4.33
2019-03-22T06:17:52.003Z,4.31
2019-03-22T06:20:18.238Z,4.35
2019-03-22T06:22:45.815Z,4.42
2019-03-22T06:25:13.391Z,4.51
2019-03-22T06:27:43.326Z,4.60
2019-03-22T06:30:10.745Z,4.67
2019-03-22T06:32:38.337Z,4.67
2019-03-22T06:35:06.106Z,4.60
2019-03-22T06:37:33.404Z,4.75
2019-03-22T06:40:01.213Z,4.91
2019-03-22T06:42:28.630Z,5.00
2019-03-22T06:44:56.016Z,5.09
2019-03-22T06:47:23.301Z,5.04
2019-03-22T06:49:50.591Z,5.04
2019-03-22T06:52:18.093Z,5.08
2019-03-22T06:54:45.412Z,5.29
2019-03-22T06:57:12.706Z,5.29
2019-03-22T06:59:40.022Z,5.45
2019-03-22T07:02:07.348Z,5.51
2019-03-22T07:04:36.166Z,5.62
2019-03-22T07:07:05.617Z,5.70
2019-03-22T07:09:35.219Z,5.72
2019-03-22T07:12:02.630Z,5.99
2019-03-22T07:14:30.270Z,5.99
2019-03-22T07:16:58.966Z,6.04
2019-03-22T07:19:26.475Z,6.18
2019-03-22T07:21:53.831Z,6.18
2019-03-22T07:24:21.120Z,6.26
2019-03-22T07:26:50.623Z,6.42
2019-03-22T07:29:17.875Z,6.74
2019-03-22T07:31:45.548Z,6.85
2019-03-22T07:34:12.861Z,6.85
2019-03-22T07:36:40.134Z,6.89
2019-03-22T07:39:07.522Z,7.09
2019-03-22T07:41:35.049Z,7.30
2019-03-22T07:44:02.302Z,7.43
2019-03-22T07:46:29.572Z,7.43
2019-03-22T07:48:57.209Z,7.57
2019-03-22T07:51:24.899Z,7.57
2019-03-22T07:53:52.522Z,8.11
2019-03-22T07:56:19.971Z,8.20
2019-03-22T07:58:49.159Z,8.20
2019-03-22T08:01:16.411Z,8.31
2019-03-22T08:03:43.716Z,8.47
2019-03-22T08:06:11.288Z,8.69
2019-03-22T08:08:39.130Z,8.86
2019-03-22T08:11:09.560Z,9.03
2019-03-22T08:13:40.130Z,9.30
2019-03-22T08:16:07.438Z,9.47
2019-03-22T08:18:34.820Z,9.71
2019-03-22T08:21:02.134Z,9.71
2019-03-22T08:23:30.571Z,9.90
2019-03-22T08:25:58.300Z,9.96
2019-03-22T08:28:28.726Z,10.19
2019-03-22T08:30:56.000Z,10.36
2019-03-22T08:33:23.427Z,10.50
2019-03-22T08:35:51.084Z,10.66
2019-03-22T08:38:18.375Z,10.75
2019-03-22T08:40:52.532Z,10.90
2019-03-22T08:43:22.315Z,11.05
2019-03-22T08:45:49.669Z,11.25
2019-03-22T08:48:17.090Z,11.38
2019-03-22T08:50:44.464Z,11.51
2019-03-22T08:53:11.747Z,11.70
2019-03-22T08:55:39.127Z,11.85
2019-03-22T08:58:06.504Z,12.02
2019-03-22T09:00:39.079Z,12.14
2019-03-22T09:03:03.272Z,12.30
2019-03-22T09:05:30.838Z,12.42
2019-03-22T09:07:58.077Z,12.57
2019-03-22T09:10:25.722Z,12.76
2019-03-22T09:12:53.127Z,12.94
2019-03-22T09:15:20.394Z,13.11
2019-03-22T09:17:47.786Z,13.27
2019-03-22T09:20:15.049Z,13.43
2019-03-22T09:22:42.312Z,13.55
2019-03-22T09:25:09.605Z,13.69
2019-03-22T09:27:36.993Z,13.83
2019-03-22T09:30:05.116Z,13.96
2019-03-22T09:32:32.392Z,14.05
2019-03-22T09:34:59.915Z,14.20
2019-03-22T09:37:27.611Z,14.36
2019-03-22T09:39:55.099Z,14.52
2019-03-22T09:42:22.455Z,14.63
2019-03-22T09:44:49.745Z,14.75
2019-03-22T09:47:22.984Z,14.85
2019-03-22T09:49:51.384Z,14.98
2019-03-22T09:52:19.474Z,15.11
2019-03-22T09:54:47.049Z,15.21
2019-03-22T09:57:15.065Z,15.30
2019-03-22T09:59:42.524Z,15.33
2019-03-22T10:02:09.919Z,15.40
2019-03-22T10:04:37.350Z,15.52
2019-03-22T10:07:04.682Z,15.64
2019-03-22T10:09:31.986Z,15.67
2019-03-22T10:11:59.359Z,15.75
2019-03-22T10:14:27.610Z,15.88
2019-03-22T10:16:57.012Z,15.94
2019-03-22T10:19:24.309Z,16.01
2019-03-22T10:21:52.416Z,16.08
2019-03-22T10:24:19.710Z,16.18
2019-03-22T10:26:47.310Z,16.27
2019-03-22T10:29:14.539Z,16.38
2019-03-22T10:31:43.629Z,16.48
2019-03-22T10:34:10.956Z,16.59
2019-03-22T10:36:41.320Z,16.66
2019-03-22T10:39:09.007Z,16.73
2019-03-22T10:41:36.355Z,16.81
2019-03-22T10:44:03.913Z,16.90
2019-03-22T10:46:31.526Z,16.95
2019-03-22T10:48:58.784Z,16.99
2019-03-22T10:51:26.256Z,17.01
2019-03-22T10:53:53.578Z,17.08
2019-03-22T10:56:21.325Z,17.18
2019-03-22T10:58:48.607Z,17.24
2019-03-22T11:01:16.015Z,17.32
2019-03-22T11:03:43.391Z,17.42
2019-03-22T11:06:10.642Z,17.52
2019-03-22T11:08:38.384Z,17.53
2019-03-22T11:11:05.788Z,17.68
2019-03-22T11:13:33.167Z,17.81
2019-03-22T11:16:00.443Z,17.92
2019-03-22T11:18:36.998Z,17.97
2019-03-22T11:21:04.719Z,18.12
2019-03-22T11:23:26.216Z,18.21
2019-03-22T11:26:03.563Z,18.28
2019-03-22T11:28:22.729Z,18.40
2019-03-22T11:30:50.115Z,18.41
2019-03-22T11:33:19.812Z,18.34
2019-03-22T11:35:47.329Z,18.45
2019-03-22T11:38:14.746Z,18.50
2019-03-22T11:40:42.295Z,18.58
2019-03-22T11:43:09.545Z,18.69
2019-03-22T11:45:36.919Z,18.72
2019-03-22T11:48:04.600Z,18.82
2019-03-22T11:50:31.914Z,18.83
2019-03-22T11:52:59.284Z,18.96
2019-03-22T11:55:27.251Z,19.05
2019-03-22T11:57:54.496Z,19.12
2019-03-22T12:00:22.831Z,19.08
2019-03-22T12:02:50.326Z,19.12
2019-03-22T12:05:17.629Z,19.11
2019-03-22T12:07:45.453Z,19.12
2019-03-22T12:10:12.905Z,18.82
2019-03-22T12:12:40.235Z,19.14
2019-03-22T12:15:08.285Z,19.39
2019-03-22T12:17:35.689Z,19.39
2019-03-22T12:20:05.208Z,19.70
2019-03-22T12:22:32.623Z,19.95
2019-03-22T12:25:00.432Z,20.09
2019-03-22T12:27:36.322Z,20.21
2019-03-22T12:29:57.255Z,20.34
2019-03-22T12:32:31.958Z,20.40
2019-03-22T12:34:53.963Z,20.56
2019-03-22T12:37:21.317Z,20.55
2019-03-22T12:39:48.620Z,20.65
2019-03-22T12:42:15.891Z,20.80
2019-03-22T12:44:43.245Z,21.02
2019-03-22T12:47:10.567Z,20.91
2019-03-22T12:49:37.853Z,20.95
2019-03-22T12:52:05.415Z,21.02
2019-03-22T12:54:32.788Z,21.04
2019-03-22T12:57:02.753Z,21.02
2019-03-22T12:59:30.080Z,21.00
2019-03-22T13:01:57.837Z,21.01
2019-03-22T13:04:25.357Z,21.06
2019-03-22T13:06:53.270Z,21.07
2019-03-22T13:09:20.681Z,21.03
2019-03-22T13:11:50.051Z,21.08
2019-03-22T13:14:17.653Z,21.15
2019-03-22T13:16:45.074Z,21.05
2019-03-22T13:19:12.339Z,21.04
2019-03-22T13:21:39.743Z,21.23
2019-03-22T13:24:07.113Z,21.41
2019-03-22T13:26:34.420Z,21.72
2019-03-22T13:29:02.196Z,21.85
2019-03-22T13:31:30.121Z,21.83
2019-03-22T13:33:57.563Z,22.06
2019-03-22T13:36:24.877Z,22.17
2019-03-22T13:38:52.165Z,22.16
2019-03-22T13:41:19.420Z,22.09
2019-03-22T13:43:47.346Z,22.24
2019-03-22T13:46:14.765Z,22.41
2019-03-22T13:48:42.063Z,22.57
2019-03-22T13:51:09.379Z,22.69
2019-03-22T13:53:36.703Z,22.67
2019-03-22T13:56:04.009Z,22.32
2019-03-22T13:58:31.764Z,22.20
2019-03-22T14:00:59.015Z,22.07
2019-03-22T14:03:26.316Z,22.09
2019-03-22T14:05:53.697Z,22.17
2019-03-22T14:08:21.005Z,21.99
2019-03-22T14:10:48.304Z,22.11
2019-03-22T14:13:18.699Z,22.28
2019-03-22T14:15:46.191Z,22.54
2019-03-22T14:18:13.540Z,22.82
2019-03-22T14:20:40.968Z,22.84
2019-03-22T14:23:08.336Z,22.49
2019-03-22T14:25:35.802Z,22.47
2019-03-22T14:28:03.127Z,22.49
2019-03-22T14:30:30.861Z,22.24
2019-03-22T14:32:58.181Z,22.16
2019-03-22T14:35:25.661Z,22.28
2019-03-22T14:37:53.099Z,22.52
2019-03-22T14:40:20.565Z,22.64
2019-03-22T14:42:48.452Z,22.63
2019-03-22T14:45:18.282Z,22.83
2019-03-22T14:47:45.664Z,22.88
2019-03-22T14:50:18.055Z,23.04
2019-03-22T14:52:53.713Z,22.97
2019-03-22T14:55:23.777Z,22.90
2019-03-22T14:58:03.914Z,22.68
2019-03-22T15:00:32.672Z,22.86
2019-03-22T15:03:01.753Z,22.98
2019-03-22T15:05:29.468Z,22.91
2019-03-22T15:07:59.508Z,22.80
2019-03-22T15:10:26.885Z,22.57
2019-03-22T15:12:54.417Z,22.55
2019-03-22T15:15:50.385Z,22.56
2019-03-22T15:18:46.048Z,22.70
2019-03-22T15:21:31.732Z,23.08
2019-03-22T15:24:24.053Z,23.32
2019-03-22T15:27:11.039Z,23.77
2019-03-22T15:29:57.003Z,23.98
2019-03-22T15:32:42.812Z,24.33
2019-03-22T15:35:28.063Z,24.26
2019-03-22T15:38:09.799Z,24.24
2019-03-22T15:40:37.108Z,24.03
2019-03-22T15:43:04.811Z,23.33
2019-03-22T15:45:34.994Z,22.75
2019-03-22T15:48:02.405Z,22.13
2019-03-22T15:50:32.082Z,21.99
2019-03-22T15:52:59.571Z,21.77
2019-03-22T15:55:27.107Z,21.69
2019-03-22T15:57:56.971Z,21.62
2019-03-22T16:00:24.284Z,21.44
2019-03-22T16:02:51.552Z,21.34
2019-03-22T16:05:22.145Z,21.18
2019-03-22T16:07:51.724Z,21.04
2019-03-22T16:10:21.948Z,20.87
2019-03-22T16:12:51.687Z,20.74
2019-03-22T16:15:18.964Z,20.56
2019-03-22T16:17:57.239Z,20.36
2019-03-22T16:20:26.048Z,20.25
2019-03-22T16:22:53.585Z,20.15
2019-03-22T16:25:25.383Z,20.06
2019-03-22T16:27:52.681Z,20.10
2019-03-22T16:30:22.020Z,19.98
2019-03-22T16:32:49.303Z,19.90
2019-03-22T16:35:19.000Z,19.89
2019-03-22T16:37:50.330Z,19.90
2019-03-22T16:40:24.069Z,19.88
2019-03-22T16:42:48.239Z,19.77
2019-03-22T16:45:43.711Z,19.79
2019-03-22T16:48:10.981Z,19.79
2019-03-22T16:50:38.287Z,19.79
2019-03-22T16:53:05.570Z,19.70
2019-03-22T16:55:32.870Z,19.62
2019-03-22T16:58:00.346Z,19.64
2019-03-22T17:00:28.349Z,19.65
2019-03-22T17:02:55.624Z,19.62
2019-03-22T17:05:23.098Z,19.51
2019-03-22T17:07:50.439Z,19.43
2019-03-22T17:10:17.941Z,19.39
2019-03-22T17:12:45.805Z,19.39
2019-03-22T17:15:15.193Z,19.30
2019-03-22T17:17:42.458Z,19.20
2019-03-22T17:20:11.453Z,19.12
2019-03-22T17:22:38.845Z,19.04
2019-03-22T17:25:06.648Z,19.01
2019-03-22T17:27:33.944Z,18.98
2019-03-22T17:30:01.229Z,18.87
2019-03-22T17:32:30.679Z,18.80
2019-03-22T17:35:00.202Z,18.76
2019-03-22T17:37:27.813Z,18.76
2019-03-22T17:40:00.857Z,18.66
2019-03-22T17:42:29.317Z,18.63
2019-03-22T17:44:57.649Z,18.55
2019-03-22T17:47:26.344Z,18.50
2019-03-22T17:49:53.694Z,18.38
2019-03-22T17:52:21.398Z,18.38
2019-03-22T17:54:49.193Z,18.38
2019-03-22T17:57:18.865Z,18.23
2019-03-22T17:59:45.761Z,18.16
2019-03-22T18:02:14.479Z,18.04
2019-03-22T18:04:42.144Z,17.93
2019-03-22T18:07:09.454Z,17.77
2019-03-22T18:09:38.453Z,17.60
2019-03-22T18:12:05.783Z,17.40
2019-03-22T18:14:33.254Z,17.16
2019-03-22T18:17:01.084Z,17.08
2019-03-22T18:19:28.776Z,16.95
2019-03-22T18:21:56.059Z,16.82
2019-03-22T18:24:23.341Z,16.82
2019-03-22T18:26:50.618Z,16.82
2019-03-22T18:29:21.181Z,16.61
2019-03-22T18:31:48.485Z,16.46
2019-03-22T18:34:17.087Z,16.36
2019-03-22T18:36:48.058Z,16.33
2019-03-22T18:39:15.479Z,16.16
2019-03-22T18:41:43.237Z,16.11
2019-03-22T18:44:10.747Z,15.98
2019-03-22T18:46:38.094Z,15.77
2019-03-22T18:49:05.459Z,15.68
2019-03-22T18:51:32.742Z,15.67
2019-03-22T18:54:00.967Z,15.65
2019-03-22T18:56:28.271Z,15.56
2019-03-22T18:58:55.558Z,15.51
2019-03-22T19:01:22.941Z,15.42
2019-03-22T19:03:50.265Z,15.41
2019-03-22T19:06:17.699Z,15.24
2019-03-22T19:08:45.247Z,15.13
2019-03-22T19:11:12.525Z,15.09
2019-03-22T19:13:39.905Z,15.03
2019-03-22T19:16:07.747Z,14.91
2019-03-22T19:18:35.363Z,14.81
2019-03-22T19:21:02.770Z,14.68
2019-03-22T19:23:30.076Z,14.65
2019-03-22T19:25:57.473Z,14.50
2019-03-22T19:28:25.353Z,14.54
2019-03-22T19:30:52.971Z,14.44
2019-03-22T19:33:22.153Z,14.25
2019-03-22T19:35:49.761Z,14.20
2019-03-22T19:38:17.165Z,14.21
2019-03-22T19:40:45.291Z,14.10
2019-03-22T19:43:12.644Z,14.11
2019-03-22T19:45:39.902Z,14.13
2019-03-22T19:48:07.153Z,14.10
2019-03-22T19:50:37.045Z,14.10
2019-03-22T19:53:07.053Z,13.96
2019-03-22T19:55:34.313Z,13.73
2019-03-22T19:58:01.804Z,13.59
2019-03-22T20:00:29.070Z,13.64
2019-03-22T20:02:56.338Z,13.51
2019-03-22T20:05:30.412Z,13.42
2019-03-22T20:07:58.057Z,13.35
2019-03-22T20:10:25.440Z,13.29
2019-03-22T20:12:52.742Z,13.34
2019-03-22T20:15:20.046Z,13.22
2019-03-22T20:17:47.343Z,13.15
2019-03-22T20:20:17.562Z,13.14
2019-03-22T20:22:45.092Z,13.01
2019-03-22T20:25:12.480Z,12.87
2019-03-22T20:27:39.841Z,12.73
2019-03-22T20:30:08.867Z,12.75
2019-03-22T20:32:36.199Z,12.85
2019-03-22T20:35:15.782Z,12.90
2019-03-22T20:37:35.808Z,12.92
2019-03-22T20:40:03.727Z,12.83
2019-03-22T20:42:33.193Z,12.61
2019-03-22T20:45:00.353Z,12.42
2019-03-22T20:47:27.740Z,12.55
2019-03-22T20:49:55.094Z,12.59
2019-03-22T20:52:22.378Z,12.56
2019-03-22T20:54:49.761Z,12.48
2019-03-22T20:57:17.665Z,12.32
2019-03-22T20:59:45.059Z,12.23
2019-03-22T21:02:12.893Z,12.12
2019-03-22T21:04:43.074Z,12.07
2019-03-22T21:07:10.408Z,12.03
2019-03-22T21:09:38.145Z,11.74
2019-03-22T21:12:05.952Z,11.61
2019-03-22T21:14:33.215Z,11.71
2019-03-22T21:17:00.504Z,11.72
2019-03-22T21:19:30.376Z,11.63
2019-03-22T21:21:57.664Z,11.61
2019-03-22T21:24:24.969Z,11.45
2019-03-22T21:26:52.389Z,11.49
2019-03-22T21:29:19.634Z,11.38
2019-03-22T21:31:46.887Z,11.22
2019-03-22T21:34:14.473Z,11.28
2019-03-22T21:36:41.766Z,11.20
2019-03-22T21:39:08.988Z,11.16
2019-03-22T21:41:38.267Z,11.20
2019-03-22T21:44:05.578Z,11.07
2019-03-22T21:46:33.061Z,11.08
2019-03-22T21:49:00.706Z,11.06
2019-03-22T21:51:28.503Z,10.96
2019-03-22T21:53:55.933Z,10.92
2019-03-22T21:56:23.290Z,10.92
2019-03-22T21:58:50.592Z,10.68
2019-03-22T22:01:17.973Z,10.50
2019-03-22T22:03:46.254Z,10.48
2019-03-22T22:06:13.629Z,10.41
2019-03-22T22:08:41.422Z,10.40
2019-03-22T22:11:10.786Z,10.27
2019-03-22T22:13:38.065Z,10.39
2019-03-22T22:16:05.489Z,10.36
2019-03-22T22:18:35.110Z,10.33
2019-03-22T22:21:02.375Z,10.23
2019-03-22T22:23:29.684Z,10.12
2019-03-22T22:25:56.981Z,10.08
2019-03-22T22:28:24.394Z,10.16
2019-03-22T22:30:51.675Z,10.04
2019-03-22T22:33:18.960Z,10.04
2019-03-22T22:35:47.032Z,10.02
2019-03-22T22:38:14.761Z,10.10
2019-03-22T22:40:42.011Z,10.02
2019-03-22T22:43:09.282Z,10.03
2019-03-22T22:45:36.680Z,9.88
2019-03-22T22:48:03.963Z,9.88
2019-03-22T22:50:31.539Z,9.92
2019-03-22T22:53:00.734Z,9.82
2019-03-22T22:55:28.202Z,9.79
2019-03-22T22:57:55.441Z,9.68
2019-03-22T23:00:25.030Z,9.69
2019-03-22T23:02:52.596Z,9.79
2019-03-22T23:05:19.987Z,9.57
2019-03-22T23:07:47.702Z,9.44
2019-03-22T23:10:15.150Z,9.33
2019-03-22T23:12:42.780Z,9.32
2019-03-22T23:15:10.045Z,9.26
2019-03-22T23:17:37.337Z,9.26
2019-03-22T23:20:05.066Z,9.23
2019-03-22T23:22:32.370Z,9.18
2019-03-22T23:24:59.814Z,9.14
2019-03-22T23:27:29.547Z,9.03
2019-03-22T23:29:58.455Z,8.97
2019-03-22T23:32:25.762Z,9.11
2019-03-22T23:34:59.107Z,9.09
2019-03-22T23:37:22.628Z,9.02
2019-03-22T23:39:49.909Z,9.03
2019-03-22T23:42:17.209Z,8.91
2019-03-22T23:44:45.000Z,8.90
2019-03-22T23:47:12.273Z,8.75
2019-03-22T23:49:39.511Z,8.79
2019-03-22T23:52:06.849Z,8.70
2019-03-22T23:54:34.207Z,8.69
2019-03-22T23:57:01.717Z,8.67
2019-03-22T23:59:29.088Z,8.45
